createdAt,value
2018-07-31T00:02:12.759Z,14.63
2018-07-31T00:04:41.032Z,13.60
2018-07-31T00:07:09.245Z,12.23
2018-07-31T00:09:37.621Z,11.97
2018-07-31T00:12:05.846Z,13.17
2018-07-31T00:14:34.076Z,12.90
2018-07-31T00:17:02.341Z,12.73
2018-07-31T00:19:30.561Z,12.80
2018-07-31T00:21:58.797Z,11.20
2018-07-31T00:24:27.047Z,12.30
2018-07-31T00:26:55.374Z,11.67
2018-07-31T00:29:23.590Z,11.30
2018-07-31T00:31:52.317Z,12.90
2018-07-31T00:34:20.516Z,12.53
2018-07-31T00:36:48.830Z,13.57
2018-07-31T00:39:17.053Z,12.70
2018-07-31T00:41:45.292Z,11.73
2018-07-31T00:44:13.541Z,12.53
2018-07-31T00:46:42.196Z,12.40
2018-07-31T00:49:10.428Z,13.30
2018-07-31T00:51:38.674Z,13.27
2018-07-31T00:54:06.888Z,13.23
2018-07-31T00:56:35.122Z,12.10
2018-07-31T00:59:03.335Z,11.23
2018-07-31T01:01:31.572Z,11.33
2018-07-31T01:03:59.789Z,11.37
2018-07-31T01:06:32.552Z,11.47
2018-07-31T01:09:00.828Z,12.07
2018-07-31T01:11:29.071Z,11.60
2018-07-31T01:13:57.294Z,12.57
2018-07-31T01:16:25.699Z,12.17
2018-07-31T01:18:53.944Z,12.70
2018-07-31T01:21:22.162Z,11.73
2018-07-31T01:23:50.482Z,12.53
2018-07-31T01:26:18.698Z,11.50
2018-07-31T01:28:46.915Z,11.90
2018-07-31T01:31:15.145Z,12.30
2018-07-31T01:33:43.380Z,11.67
2018-07-31T01:36:11.622Z,11.13
2018-07-31T01:38:39.856Z,11.80
2018-07-31T01:41:08.094Z,12.70
2018-07-31T01:43:36.309Z,11.80
2018-07-31T01:46:04.619Z,12.30
2018-07-31T01:48:32.771Z,12.80
2018-07-31T01:51:01.018Z,12.80
2018-07-31T01:53:29.223Z,11.43
2018-07-31T01:55:57.461Z,12.70
2018-07-31T01:58:25.658Z,12.13
2018-07-31T02:00:54.041Z,18.73
2018-07-31T02:03:22.230Z,13.20
2018-07-31T02:05:50.524Z,13.33
2018-07-31T02:08:18.750Z,11.53
2018-07-31T02:10:48.420Z,12.80
2018-07-31T02:13:16.622Z,11.17
2018-07-31T02:15:45.165Z,12.07
2018-07-31T02:18:13.167Z,13.40
2018-07-31T02:20:41.601Z,13.30
2018-07-31T02:23:11.030Z,12.67
2018-07-31T02:25:39.802Z,13.73
2018-07-31T02:28:08.168Z,11.20
2018-07-31T02:30:36.403Z,12.60
2018-07-31T02:33:04.786Z,12.77
2018-07-31T02:35:32.967Z,12.20
2018-07-31T02:38:01.245Z,12.40
2018-07-31T02:40:29.503Z,13.97
2018-07-31T02:42:57.772Z,11.80
2018-07-31T02:45:26.113Z,11.60
2018-07-31T02:47:54.364Z,11.43
2018-07-31T02:50:22.601Z,11.97
2018-07-31T02:52:50.882Z,12.00
2018-07-31T02:55:19.085Z,11.47
2018-07-31T02:57:47.366Z,10.60
2018-07-31T03:00:15.621Z,10.97
2018-07-31T03:02:43.819Z,11.60
2018-07-31T03:05:12.529Z,11.73
2018-07-31T03:07:41.230Z,11.60
2018-07-31T03:10:10.517Z,11.43
2018-07-31T03:12:38.764Z,11.60
2018-07-31T03:15:07.986Z,10.80
2018-07-31T03:17:36.253Z,10.60
2018-07-31T03:20:04.618Z,11.30
2018-07-31T03:22:32.906Z,11.43
2018-07-31T03:25:01.119Z,11.63
2018-07-31T03:27:29.398Z,11.97
2018-07-31T03:29:57.865Z,11.40
2018-07-31T03:32:26.093Z,11.57
2018-07-31T03:34:54.379Z,11.47
2018-07-31T03:37:22.683Z,11.90
2018-07-31T03:39:50.959Z,11.83
2018-07-31T03:42:19.133Z,13.03
2018-07-31T03:44:47.449Z,11.67
2018-07-31T03:47:15.656Z,10.13
2018-07-31T03:49:43.925Z,10.90
2018-07-31T03:52:12.343Z,11.07
2018-07-31T03:54:40.566Z,10.80
2018-07-31T03:57:08.814Z,11.03
2018-07-31T03:59:37.030Z,11.47
2018-07-31T04:02:05.274Z,10.63
2018-07-31T04:04:33.508Z,10.90
2018-07-31T04:07:01.697Z,10.50
2018-07-31T04:09:29.909Z,10.17
2018-07-31T04:11:58.125Z,10.80
2018-07-31T04:14:26.508Z,11.40
2018-07-31T04:16:54.756Z,10.10
2018-07-31T04:19:22.929Z,9.07
2018-07-31T04:21:51.140Z,10.83
2018-07-31T04:24:19.997Z,11.40
2018-07-31T04:26:48.226Z,11.10
2018-07-31T04:29:16.762Z,10.90
2018-07-31T04:31:45.005Z,10.87
2018-07-31T04:34:13.222Z,11.10
2018-07-31T04:36:41.670Z,11.83
2018-07-31T04:39:11.548Z,11.53
2018-07-31T04:41:39.726Z,11.13
2018-07-31T04:44:07.997Z,10.53
2018-07-31T04:46:36.542Z,11.33
2018-07-31T04:49:04.818Z,12.27
2018-07-31T04:51:33.069Z,11.07
2018-07-31T04:54:01.538Z,10.50
2018-07-31T04:56:29.723Z,11.20
2018-07-31T04:58:58.277Z,10.83
2018-07-31T05:01:26.504Z,12.50
2018-07-31T05:03:54.709Z,11.93
2018-07-31T05:06:22.933Z,11.40
2018-07-31T05:08:51.125Z,13.17
2018-07-31T05:11:19.322Z,12.27
2018-07-31T05:13:47.553Z,11.03
2018-07-31T05:16:15.758Z,12.47
2018-07-31T05:18:43.994Z,11.50
2018-07-31T05:21:12.254Z,12.10
2018-07-31T05:23:40.555Z,12.20
2018-07-31T05:26:08.782Z,11.10
2018-07-31T05:28:36.993Z,10.73
2018-07-31T05:31:05.204Z,10.50
2018-07-31T05:33:33.411Z,12.13
2018-07-31T05:36:01.913Z,12.63
2018-07-31T05:38:30.209Z,11.50
2018-07-31T05:40:58.412Z,12.57
2018-07-31T05:43:26.890Z,10.90
2018-07-31T05:45:55.157Z,12.80
2018-07-31T05:48:23.361Z,12.30
2018-07-31T05:50:51.777Z,11.30
2018-07-31T05:53:19.982Z,12.20
2018-07-31T05:55:48.188Z,11.60
2018-07-31T05:58:16.402Z,12.40
2018-07-31T06:00:44.618Z,11.70
2018-07-31T06:03:12.801Z,12.30
2018-07-31T06:05:41.209Z,11.53
2018-07-31T06:08:09.422Z,13.40
2018-07-31T06:10:37.626Z,11.67
2018-07-31T06:13:05.817Z,11.73
2018-07-31T06:15:34.147Z,12.03
2018-07-31T06:18:02.373Z,12.20
2018-07-31T06:20:30.598Z,13.13
2018-07-31T06:22:59.080Z,11.90
2018-07-31T06:25:27.291Z,11.63
2018-07-31T06:27:55.661Z,12.40
2018-07-31T06:30:23.875Z,12.93
2018-07-31T06:32:52.114Z,11.23
2018-07-31T06:35:20.269Z,11.47
2018-07-31T06:37:48.675Z,10.53
2018-07-31T06:40:16.845Z,11.10
2018-07-31T06:42:45.053Z,11.50
2018-07-31T06:45:13.285Z,9.90
2018-07-31T06:47:41.479Z,10.83
2018-07-31T06:50:09.727Z,12.00
2018-07-31T06:52:37.923Z,9.60
2018-07-31T06:55:06.178Z,11.10
2018-07-31T06:57:35.462Z,11.30
2018-07-31T07:00:03.766Z,10.60
2018-07-31T07:02:31.978Z,10.97
2018-07-31T07:05:00.496Z,10.93
2018-07-31T07:07:28.755Z,9.60
2018-07-31T07:09:57.126Z,13.47
2018-07-31T07:12:25.473Z,11.27
2018-07-31T07:14:53.805Z,8.90
2018-07-31T07:17:22.185Z,9.47
2018-07-31T07:19:50.378Z,9.47
2018-07-31T07:22:18.565Z,10.40
2018-07-31T07:24:46.805Z,9.23
2018-07-31T07:27:15.087Z,10.03
2018-07-31T07:29:43.469Z,11.40
2018-07-31T07:32:11.742Z,9.13
2018-07-31T07:34:40.285Z,9.70
2018-07-31T07:37:08.479Z,10.23
2018-07-31T07:39:36.725Z,9.80
2018-07-31T07:42:04.939Z,8.87
2018-07-31T07:44:33.428Z,9.33
2018-07-31T07:47:01.627Z,8.37
2018-07-31T07:49:29.844Z,9.17
2018-07-31T07:51:58.033Z,9.57
2018-07-31T07:54:26.279Z,9.27
2018-07-31T07:56:54.702Z,9.77
2018-07-31T07:59:22.934Z,9.43
2018-07-31T08:01:51.174Z,15.60
2018-07-31T08:04:19.386Z,9.40
2018-07-31T08:06:47.609Z,9.33
2018-07-31T08:09:15.986Z,9.93
2018-07-31T08:11:44.178Z,9.33
2018-07-31T08:14:12.422Z,9.50
2018-07-31T08:16:40.649Z,10.13
2018-07-31T08:19:08.909Z,9.47
2018-07-31T08:21:37.133Z,8.60
2018-07-31T08:24:06.057Z,8.97
2018-07-31T08:26:34.489Z,9.10
2018-07-31T08:29:02.816Z,9.70
2018-07-31T08:31:31.037Z,9.67
2018-07-31T08:33:59.412Z,9.27
2018-07-31T08:36:28.066Z,10.60
2018-07-31T08:38:56.382Z,9.40
2018-07-31T08:41:24.974Z,10.67
2018-07-31T08:43:53.268Z,10.40
2018-07-31T08:46:21.480Z,10.23
2018-07-31T08:48:49.700Z,9.47
2018-07-31T08:51:17.726Z,9.63
2018-07-31T08:53:46.083Z,9.60
2018-07-31T08:56:14.325Z,9.80
2018-07-31T09:00:12.081Z,10.43
2018-07-31T09:02:40.547Z,10.70
2018-07-31T09:05:08.863Z,9.80
2018-07-31T09:07:37.149Z,9.73
2018-07-31T09:10:05.609Z,10.00
2018-07-31T09:12:33.926Z,9.63
2018-07-31T09:15:02.211Z,9.67
2018-07-31T09:17:30.561Z,9.60
2018-07-31T09:19:58.958Z,9.80
2018-07-31T09:22:27.150Z,10.43
2018-07-31T09:24:55.433Z,10.10
2018-07-31T09:27:23.723Z,11.27
2018-07-31T09:29:51.987Z,9.43
2018-07-31T09:32:24.489Z,8.80
2018-07-31T09:34:52.743Z,9.97
2018-07-31T09:37:20.953Z,10.77
2018-07-31T09:39:49.164Z,10.30
2018-07-31T09:42:17.965Z,9.77
2018-07-31T09:44:46.177Z,9.37
2018-07-31T09:47:14.545Z,10.30
2018-07-31T09:49:42.741Z,9.87
2018-07-31T09:52:10.997Z,10.40
2018-07-31T09:54:39.210Z,10.50
2018-07-31T09:57:07.506Z,9.63
2018-07-31T09:59:35.781Z,9.67
2018-07-31T10:02:04.002Z,9.13
2018-07-31T10:04:32.313Z,10.27
2018-07-31T10:07:00.652Z,8.60
2018-07-31T10:09:29.073Z,9.47
2018-07-31T10:11:57.327Z,8.70
2018-07-31T10:14:25.648Z,8.67
2018-07-31T10:16:53.861Z,9.20
2018-07-31T10:19:22.093Z,9.40
2018-07-31T10:21:50.661Z,8.77
2018-07-31T10:24:18.922Z,9.97
2018-07-31T10:26:47.236Z,9.27
2018-07-31T10:29:15.456Z,8.07
2018-07-31T10:31:43.717Z,9.20
2018-07-31T10:34:11.982Z,9.50
2018-07-31T10:36:40.206Z,9.30
2018-07-31T10:39:08.692Z,9.50
2018-07-31T10:41:36.953Z,8.00
2018-07-31T10:44:05.189Z,8.70
2018-07-31T10:46:33.390Z,8.87
2018-07-31T10:49:01.709Z,8.73
2018-07-31T10:51:30.149Z,8.63
2018-07-31T10:53:58.549Z,9.13
2018-07-31T10:56:27.362Z,8.53
2018-07-31T10:58:55.615Z,8.20
2018-07-31T11:01:23.870Z,8.97
2018-07-31T11:03:52.114Z,8.23
2018-07-31T11:06:20.385Z,8.20
2018-07-31T11:08:48.529Z,7.83
2018-07-31T11:11:17.128Z,8.20
2018-07-31T11:13:45.519Z,8.93
2018-07-31T11:16:13.721Z,7.63
2018-07-31T11:18:41.961Z,7.00
2018-07-31T11:21:10.173Z,6.50
2018-07-31T11:23:38.438Z,6.77
2018-07-31T11:26:06.841Z,7.17
2018-07-31T11:28:35.206Z,7.60
2018-07-31T11:31:04.739Z,7.70
2018-07-31T11:33:33.155Z,7.90
2018-07-31T11:36:01.831Z,7.53
2018-07-31T11:38:30.240Z,7.13
2018-07-31T11:40:58.660Z,7.00
2018-07-31T11:43:26.934Z,6.67
2018-07-31T11:45:55.006Z,6.07
2018-07-31T11:48:23.108Z,6.90
2018-07-31T11:50:51.444Z,6.67
2018-07-31T11:53:19.795Z,6.43
2018-07-31T11:55:48.521Z,7.23
2018-07-31T11:58:16.986Z,6.80
2018-07-31T12:00:45.361Z,6.67
2018-07-31T12:03:13.734Z,6.97
2018-07-31T12:05:42.094Z,6.53
2018-07-31T12:08:10.718Z,6.63
2018-07-31T12:10:38.749Z,5.63
2018-07-31T12:13:07.027Z,5.77
2018-07-31T12:15:35.346Z,5.23
2018-07-31T12:18:03.755Z,5.13
2018-07-31T12:20:32.234Z,5.63
2018-07-31T12:23:00.560Z,6.40
2018-07-31T12:25:28.890Z,5.57
2018-07-31T12:27:57.410Z,6.10
2018-07-31T12:30:25.793Z,5.93
2018-07-31T12:32:54.137Z,5.20
2018-07-31T12:35:22.214Z,6.20
2018-07-31T12:37:50.679Z,5.17
2018-07-31T12:40:19.055Z,5.40
2018-07-31T12:42:47.742Z,5.67
2018-07-31T12:45:16.023Z,5.40
2018-07-31T12:47:44.293Z,5.50
2018-07-31T12:50:12.606Z,5.23
2018-07-31T12:52:40.721Z,4.63
2018-07-31T12:55:08.985Z,5.10
2018-07-31T12:57:36.941Z,5.13
2018-07-31T13:00:05.438Z,5.00
2018-07-31T13:02:33.610Z,4.93
2018-07-31T13:05:01.965Z,5.17
2018-07-31T13:07:30.198Z,5.27
2018-07-31T13:09:58.480Z,6.00
2018-07-31T13:12:26.794Z,4.73
2018-07-31T13:14:55.168Z,5.33
2018-07-31T13:24:07.971Z,5.67
2018-07-31T13:26:36.245Z,5.00
2018-07-31T13:29:04.484Z,4.97
2018-07-31T13:31:32.781Z,4.83
2018-07-31T13:34:01.296Z,5.20
2018-07-31T13:36:29.534Z,5.00
2018-07-31T13:38:57.938Z,5.63
2018-07-31T13:41:26.173Z,4.50
2018-07-31T13:43:54.536Z,5.37
2018-07-31T13:46:22.757Z,4.40
2018-07-31T13:48:51.339Z,5.00
2018-07-31T13:51:19.565Z,5.77
2018-07-31T13:53:47.806Z,5.40
2018-07-31T13:56:16.050Z,5.80
2018-07-31T13:58:44.309Z,5.53
2018-07-31T14:01:12.702Z,5.03
2018-07-31T14:03:40.925Z,5.27
2018-07-31T14:06:09.366Z,6.40
2018-07-31T14:08:37.546Z,6.17
2018-07-31T14:11:05.874Z,7.67
2018-07-31T14:13:34.155Z,5.47
2018-07-31T14:16:02.671Z,5.87
2018-07-31T14:18:30.909Z,5.77
2018-07-31T14:20:59.189Z,5.20
2018-07-31T14:23:27.508Z,5.50
2018-07-31T14:25:56.011Z,5.17
2018-07-31T14:28:24.249Z,5.30
2018-07-31T14:30:52.560Z,5.03
2018-07-31T14:33:20.725Z,5.60
2018-07-31T14:35:49.098Z,6.10
2018-07-31T14:38:17.314Z,5.03
2018-07-31T14:40:45.523Z,5.47
2018-07-31T14:43:13.755Z,5.83
2018-07-31T14:45:41.973Z,4.70
2018-07-31T14:48:10.473Z,4.60
2018-07-31T14:50:38.778Z,4.93
2018-07-31T14:53:07.462Z,4.43
2018-07-31T14:55:35.770Z,4.97
2018-07-31T14:58:04.065Z,5.17
2018-07-31T15:00:32.495Z,4.80
2018-07-31T15:03:00.909Z,5.53
2018-07-31T15:05:29.335Z,6.97
2018-07-31T15:07:57.618Z,6.33
2018-07-31T15:10:25.960Z,6.33
2018-07-31T15:12:54.085Z,6.50
2018-07-31T15:15:22.438Z,6.30
2018-07-31T15:17:50.754Z,6.77
2018-07-31T15:20:19.107Z,6.90
2018-07-31T15:22:47.311Z,6.93
2018-07-31T15:25:15.646Z,5.73
2018-07-31T15:27:43.948Z,6.30
2018-07-31T15:30:12.314Z,5.70
2018-07-31T15:32:40.596Z,6.00
2018-07-31T15:35:08.889Z,6.20
2018-07-31T15:37:37.320Z,5.60
2018-07-31T15:40:05.754Z,6.50
2018-07-31T15:42:34.230Z,4.93
2018-07-31T15:45:02.515Z,5.30
2018-07-31T15:47:30.810Z,5.40
2018-07-31T15:49:59.266Z,5.23
2018-07-31T15:52:27.580Z,5.13
2018-07-31T15:54:55.900Z,5.00
2018-07-31T15:57:24.255Z,4.80
2018-07-31T15:59:52.719Z,5.40
2018-07-31T16:02:20.918Z,5.50
2018-07-31T16:04:49.287Z,5.30
2018-07-31T16:07:17.530Z,4.63
2018-07-31T16:09:45.783Z,4.80
2018-07-31T16:12:14.015Z,4.93
2018-07-31T16:14:42.237Z,4.20
2018-07-31T16:17:10.609Z,4.13
2018-07-31T16:19:38.834Z,4.53
2018-07-31T16:22:07.278Z,4.30
2018-07-31T16:24:35.510Z,3.77
2018-07-31T16:27:03.747Z,3.80
2018-07-31T16:29:32.519Z,6.83
2018-07-31T16:32:00.783Z,4.67
2018-07-31T16:34:29.413Z,3.70
2018-07-31T16:36:57.667Z,3.60
2018-07-31T16:39:26.091Z,3.63
2018-07-31T16:41:54.405Z,3.90
2018-07-31T16:44:22.886Z,4.00
2018-07-31T16:46:51.128Z,4.70
2018-07-31T16:49:19.354Z,4.20
2018-07-31T16:51:47.610Z,3.67
2018-07-31T16:54:16.024Z,4.23
2018-07-31T16:56:44.255Z,4.30
2018-07-31T16:59:12.550Z,3.90
2018-07-31T17:01:40.777Z,4.83
2018-07-31T17:04:09.053Z,4.17
2018-07-31T17:06:37.566Z,5.23
2018-07-31T17:09:06.759Z,4.93
2018-07-31T17:11:35.226Z,4.90
2018-07-31T17:14:03.768Z,5.30
2018-07-31T17:16:32.361Z,5.53
2018-07-31T17:19:00.601Z,5.20
2018-07-31T17:21:28.840Z,5.30
2018-07-31T17:23:57.049Z,5.73
2018-07-31T17:26:25.279Z,5.60
2018-07-31T17:28:53.861Z,5.70
2018-07-31T17:31:22.142Z,5.07
2018-07-31T17:33:50.475Z,6.60
2018-07-31T17:36:18.996Z,5.90
2018-07-31T17:38:47.254Z,6.00
2018-07-31T17:41:15.457Z,5.80
2018-07-31T17:43:43.660Z,5.70
2018-07-31T17:46:12.080Z,5.67
2018-07-31T17:48:40.291Z,5.80
2018-07-31T17:51:08.684Z,6.37
2018-07-31T17:53:36.950Z,6.70
2018-07-31T17:56:05.262Z,5.97
2018-07-31T17:58:33.530Z,6.37
2018-07-31T18:01:01.755Z,6.20
2018-07-31T18:03:30.075Z,5.87
2018-07-31T18:05:58.222Z,6.50
2018-07-31T18:08:26.482Z,5.73
2018-07-31T18:10:54.655Z,6.10
2018-07-31T18:13:23.307Z,6.63
2018-07-31T18:15:51.529Z,7.07
2018-07-31T18:18:19.723Z,6.40
2018-07-31T18:20:47.918Z,7.33
2018-07-31T18:23:15.897Z,8.63
2018-07-31T18:25:44.106Z,7.83
2018-07-31T18:28:12.326Z,6.53
2018-07-31T18:30:40.517Z,7.20
2018-07-31T18:33:08.726Z,6.90
2018-07-31T18:35:37.310Z,8.03
2018-07-31T18:38:05.553Z,7.57
2018-07-31T18:40:33.938Z,7.77
2018-07-31T18:43:02.338Z,7.63
2018-07-31T18:45:30.525Z,8.50
2018-07-31T18:47:59.100Z,7.33
2018-07-31T18:50:27.290Z,8.43
2018-07-31T18:52:55.493Z,7.33
2018-07-31T18:55:23.749Z,7.50
2018-07-31T18:57:51.917Z,7.17
2018-07-31T19:00:20.112Z,7.70
2018-07-31T19:02:48.551Z,7.73
2018-07-31T19:05:16.929Z,8.43
2018-07-31T19:07:45.109Z,9.80
2018-07-31T19:10:13.363Z,9.53
2018-07-31T19:12:41.610Z,10.30
2018-07-31T19:15:10.689Z,9.97
2018-07-31T19:17:39.309Z,12.00
2018-07-31T19:20:07.598Z,12.80
2018-07-31T19:22:36.194Z,14.00
2018-07-31T19:25:04.473Z,14.30
2018-07-31T19:27:32.683Z,12.63
2018-07-31T19:30:01.030Z,13.80
2018-07-31T19:32:29.402Z,14.50
2018-07-31T19:34:57.620Z,11.23
2018-07-31T19:37:25.857Z,11.20
2018-07-31T19:39:54.846Z,11.83
2018-07-31T19:42:23.038Z,10.77
2018-07-31T19:44:51.291Z,11.13
2018-07-31T19:47:19.703Z,10.17
2018-07-31T19:49:47.969Z,10.30
2018-07-31T19:52:16.166Z,10.60
2018-07-31T19:54:44.402Z,11.80
2018-07-31T19:57:12.621Z,11.87
2018-07-31T19:59:40.853Z,10.90
2018-07-31T20:02:09.372Z,11.30
2018-07-31T20:04:37.573Z,14.00
2018-07-31T20:07:05.825Z,12.17
2018-07-31T20:09:34.063Z,12.43
2018-07-31T20:12:02.338Z,14.53
2018-07-31T20:14:30.546Z,15.73
2018-07-31T20:16:58.991Z,15.47
2018-07-31T20:19:27.181Z,16.03
2018-07-31T20:21:55.394Z,15.10
2018-07-31T20:24:23.592Z,16.80
2018-07-31T20:26:51.815Z,17.00
2018-07-31T20:29:20.010Z,17.77
2018-07-31T20:31:48.362Z,17.77
2018-07-31T20:34:16.549Z,16.10
2018-07-31T20:36:44.805Z,16.77
2018-07-31T20:39:13.010Z,16.20
2018-07-31T20:41:41.278Z,15.83
2018-07-31T20:44:10.236Z,16.00
2018-07-31T20:46:38.853Z,15.23
2018-07-31T20:49:07.094Z,16.67
2018-07-31T20:51:35.292Z,17.83
2018-07-31T20:54:03.593Z,16.97
2018-07-31T20:56:32.117Z,15.63
2018-07-31T20:59:00.289Z,15.43
2018-07-31T21:01:28.509Z,15.83
2018-07-31T21:03:56.729Z,16.17
2018-07-31T21:06:24.956Z,14.00
2018-07-31T21:08:53.693Z,14.10
2018-07-31T21:11:21.609Z,15.87
2018-07-31T21:13:49.830Z,15.50
2018-07-31T21:16:18.045Z,15.10
2018-07-31T21:18:46.301Z,14.77
2018-07-31T21:21:14.473Z,15.00
2018-07-31T21:23:42.685Z,14.63
2018-07-31T21:26:10.881Z,13.70
2018-07-31T21:28:39.109Z,14.40
2018-07-31T21:31:07.597Z,15.13
2018-07-31T21:33:35.793Z,13.30
2018-07-31T21:36:04.020Z,13.87
2018-07-31T21:38:32.218Z,13.53
2018-07-31T21:41:00.402Z,14.00
2018-07-31T21:43:28.600Z,14.63
2018-07-31T21:45:56.819Z,14.07
2018-07-31T21:48:25.039Z,14.50
2018-07-31T21:50:53.253Z,13.73
2018-07-31T21:53:22.242Z,14.53
2018-07-31T21:55:50.431Z,14.83
2018-07-31T21:58:18.658Z,15.40
2018-07-31T22:00:52.278Z,15.60
2018-07-31T22:03:20.532Z,14.43
2018-07-31T22:05:48.762Z,13.33
2018-07-31T22:08:16.923Z,13.30
2018-07-31T22:10:45.136Z,15.17
2018-07-31T22:13:13.342Z,14.43
2018-07-31T22:15:42.082Z,15.23
2018-07-31T22:18:10.427Z,14.87
2018-07-31T22:20:38.638Z,14.13
2018-07-31T22:23:06.843Z,14.30
2018-07-31T22:25:35.054Z,14.97
2018-07-31T22:28:03.266Z,14.73
2018-07-31T22:30:31.468Z,14.87
2018-07-31T22:32:59.698Z,14.90
2018-07-31T22:35:27.917Z,14.17
2018-07-31T22:37:56.858Z,13.40
2018-07-31T22:40:25.067Z,12.50
2018-07-31T22:42:53.478Z,14.07
2018-07-31T22:45:21.666Z,12.43
2018-07-31T22:47:49.949Z,13.37
2018-07-31T22:50:18.060Z,13.67
2018-07-31T22:52:46.269Z,13.17
2018-07-31T22:55:14.455Z,12.63
2018-07-31T22:57:42.656Z,13.40
2018-07-31T23:00:11.075Z,12.17
2018-07-31T23:02:40.721Z,12.50
2018-07-31T23:05:10.197Z,14.00
2018-07-31T23:07:38.407Z,12.53
2018-07-31T23:10:06.733Z,13.00
2018-07-31T23:12:34.920Z,13.20
2018-07-31T23:15:03.789Z,12.67
2018-07-31T23:17:32.185Z,11.93
2018-07-31T23:20:02.834Z,12.50
2018-07-31T23:22:44.413Z,13.90
2018-07-31T23:25:12.617Z,13.50
2018-07-31T23:27:40.837Z,12.83
2018-07-31T23:30:09.581Z,12.57
2018-07-31T23:32:38.496Z,12.57
2018-07-31T23:35:06.927Z,12.73
2018-07-31T23:37:35.147Z,12.27
2018-07-31T23:40:04.102Z,12.90
2018-07-31T23:42:32.593Z,12.40
2018-07-31T23:45:00.785Z,13.20
2018-07-31T23:47:29.833Z,12.03
2018-07-31T23:49:58.942Z,12.53
2018-07-31T23:52:27.259Z,13.47
2018-07-31T23:54:55.499Z,12.33
2018-07-31T23:57:23.707Z,12.13
2018-07-31T23:59:52.010Z,13.33
